createdAt,value
2022-11-24T00:00:31.413Z,3.63
2022-11-24T00:02:58.182Z,4.00
2022-11-24T00:05:24.671Z,4.00
2022-11-24T00:07:51.155Z,3.40
2022-11-24T00:10:17.652Z,3.55
2022-11-24T00:12:44.038Z,3.33
2022-11-24T00:15:10.679Z,4.10
2022-11-24T00:17:37.058Z,3.10
2022-11-24T00:20:03.692Z,3.75
2022-11-24T00:22:30.712Z,3.63
2022-11-24T00:24:57.104Z,3.60
2022-11-24T00:27:23.479Z,3.80
2022-11-24T00:29:49.891Z,3.50
2022-11-24T00:32:16.243Z,3.70
2022-11-24T00:34:42.611Z,3.10
2022-11-24T00:37:09.018Z,3.67
2022-11-24T00:39:35.404Z,3.17
2022-11-24T00:42:02.005Z,3.60
2022-11-24T00:44:28.398Z,3.97
2022-11-24T00:46:54.854Z,3.33
2022-11-24T00:49:21.309Z,3.55
2022-11-24T00:51:47.796Z,3.22
2022-11-24T00:54:14.263Z,3.60
2022-11-24T00:56:40.703Z,3.70
2022-11-24T00:59:07.284Z,3.75
2022-11-24T01:01:34.031Z,2.78
2022-11-24T01:04:03.760Z,3.35
2022-11-24T01:06:30.755Z,4.07
2022-11-24T01:08:57.570Z,4.00
2022-11-24T01:11:30.084Z,3.83
2022-11-24T01:13:58.884Z,3.72
2022-11-24T01:16:29.181Z,3.53
2022-11-24T01:18:55.972Z,4.00
2022-11-24T01:21:22.731Z,4.10
2022-11-24T01:23:49.193Z,3.38
2022-11-24T01:26:18.597Z,3.63
2022-11-24T01:28:47.567Z,4.07
2022-11-24T01:31:14.719Z,3.50
2022-11-24T01:33:41.243Z,3.45
2022-11-24T01:36:07.696Z,3.63
2022-11-24T01:38:34.156Z,3.22
2022-11-24T01:41:06.787Z,3.40
2022-11-24T01:43:33.607Z,3.40
2022-11-24T01:46:15.125Z,3.70
2022-11-24T01:48:44.684Z,3.13
2022-11-24T01:51:13.867Z,3.63
2022-11-24T01:53:42.199Z,3.97
2022-11-24T01:56:08.923Z,3.80
2022-11-24T01:58:36.210Z,3.85
2022-11-24T02:01:02.881Z,3.63
2022-11-24T02:03:34.547Z,3.22
2022-11-24T02:06:13.125Z,3.80
2022-11-24T02:08:47.171Z,3.88
2022-11-24T02:11:13.604Z,3.85
2022-11-24T02:13:41.142Z,4.10
2022-11-24T02:16:08.753Z,3.88
2022-11-24T02:18:37.010Z,3.85
2022-11-24T02:21:03.526Z,3.63
2022-11-24T02:23:45.085Z,3.97
2022-11-24T02:26:19.576Z,4.85
2022-11-24T02:28:46.240Z,4.00
2022-11-24T02:31:12.948Z,4.00
2022-11-24T02:33:39.722Z,3.83
2022-11-24T02:36:06.479Z,3.40
2022-11-24T02:38:34.500Z,3.75
2022-11-24T02:41:09.216Z,3.53
2022-11-24T02:43:39.799Z,3.55
2022-11-24T02:46:06.816Z,3.83
2022-11-24T02:48:33.533Z,3.30
2022-11-24T02:50:59.927Z,4.00
2022-11-24T02:53:26.300Z,3.85
2022-11-24T02:55:53.184Z,4.13
2022-11-24T02:58:19.612Z,3.90
2022-11-24T03:00:46.081Z,4.35
2022-11-24T03:03:12.648Z,4.05
2022-11-24T03:05:39.132Z,4.78
2022-11-24T03:08:05.639Z,4.13
2022-11-24T03:10:32.313Z,4.50
2022-11-24T03:12:58.710Z,3.97
2022-11-24T03:15:25.133Z,4.80
2022-11-24T03:17:54.475Z,4.50
2022-11-24T03:20:20.946Z,5.03
2022-11-24T03:22:47.354Z,4.03
2022-11-24T03:25:13.755Z,3.67
2022-11-24T03:27:40.163Z,4.00
2022-11-24T03:30:07.577Z,3.97
2022-11-24T03:32:34.021Z,4.05
2022-11-24T03:35:00.386Z,3.78
2022-11-24T03:37:26.790Z,4.20
2022-11-24T03:39:53.181Z,4.40
2022-11-24T03:42:19.560Z,4.90
2022-11-24T03:44:45.928Z,4.45
2022-11-24T03:47:12.502Z,4.93
2022-11-24T03:49:39.039Z,4.00
2022-11-24T03:52:08.190Z,4.80
2022-11-24T03:54:35.471Z,4.40
2022-11-24T03:57:02.085Z,4.28
2022-11-24T03:59:28.454Z,4.03
2022-11-24T04:01:55.034Z,4.45
2022-11-24T04:04:21.448Z,4.38
2022-11-24T04:06:47.826Z,4.55
2022-11-24T04:09:14.280Z,4.32
2022-11-24T04:12:06.843Z,4.38
2022-11-24T04:14:33.481Z,4.10
2022-11-24T04:17:00.117Z,4.72
2022-11-24T04:19:26.634Z,5.18
2022-11-24T04:21:53.095Z,4.40
2022-11-24T04:24:19.453Z,4.78
2022-11-24T04:26:45.823Z,4.28
2022-11-24T04:29:12.261Z,3.95
2022-11-24T04:31:38.722Z,4.47
2022-11-24T04:34:05.158Z,4.15
2022-11-24T04:36:31.594Z,4.97
2022-11-24T04:39:23.333Z,5.03
2022-11-24T04:41:44.406Z,4.28
2022-11-24T04:44:10.775Z,4.47
2022-11-24T04:46:37.174Z,3.47
2022-11-24T04:49:03.603Z,4.22
2022-11-24T04:51:29.989Z,4.47
2022-11-24T04:53:56.428Z,4.38
2022-11-24T04:56:23.082Z,3.65
2022-11-24T04:58:49.760Z,4.53
2022-11-24T05:01:16.278Z,4.57
2022-11-24T05:03:42.740Z,3.92
2022-11-24T05:06:09.124Z,4.10
2022-11-24T05:08:35.646Z,4.18
2022-11-24T05:11:06.233Z,3.72
2022-11-24T05:13:32.931Z,3.70
2022-11-24T05:16:00.196Z,4.25
2022-11-24T05:18:26.678Z,3.85
2022-11-24T05:20:53.041Z,4.85
2022-11-24T05:23:19.436Z,3.85
2022-11-24T05:25:47.734Z,3.85
2022-11-24T05:28:14.491Z,4.38
2022-11-24T05:30:42.012Z,4.32
2022-11-24T05:33:12.537Z,3.92
2022-11-24T05:35:38.931Z,4.43
2022-11-24T05:38:05.303Z,4.90
2022-11-24T05:40:31.749Z,4.80
2022-11-24T05:42:58.208Z,5.13
2022-11-24T05:45:24.701Z,4.72
2022-11-24T05:47:51.511Z,4.50
2022-11-24T05:50:20.181Z,4.10
2022-11-24T05:52:46.987Z,4.80
2022-11-24T05:55:19.342Z,5.10
2022-11-24T05:57:45.795Z,4.50
2022-11-24T06:00:13.189Z,4.38
2022-11-24T06:02:39.783Z,4.80
2022-11-24T06:05:06.477Z,4.50
2022-11-24T06:07:32.940Z,4.70
2022-11-24T06:09:59.417Z,4.20
2022-11-24T06:12:25.835Z,4.57
2022-11-24T06:14:52.447Z,4.93
2022-11-24T06:17:19.022Z,4.38
2022-11-24T06:19:47.852Z,4.05
2022-11-24T06:22:14.359Z,3.50
2022-11-24T06:24:40.802Z,4.28
2022-11-24T06:27:07.672Z,4.03
2022-11-24T06:29:34.104Z,3.75
2022-11-24T06:32:00.607Z,3.90
2022-11-24T06:34:27.077Z,4.72
2022-11-24T06:36:53.451Z,3.80
2022-11-24T06:39:19.834Z,4.43
2022-11-24T06:41:46.289Z,4.57
2022-11-24T06:44:12.696Z,3.90
2022-11-24T06:46:39.128Z,4.32
2022-11-24T06:49:05.654Z,5.47
2022-11-24T06:51:32.046Z,4.75
2022-11-24T06:53:58.492Z,4.78
2022-11-24T06:56:25.158Z,3.92
2022-11-24T06:58:53.146Z,4.25
2022-11-24T07:01:22.002Z,3.90
2022-11-24T07:03:49.243Z,4.13
2022-11-24T07:06:16.260Z,3.72
2022-11-24T07:08:42.846Z,3.80
2022-11-24T07:11:11.568Z,3.40
2022-11-24T07:13:38.040Z,3.70
2022-11-24T07:16:31.211Z,3.75
2022-11-24T07:18:58.312Z,4.60
2022-11-24T07:21:25.997Z,4.53
2022-11-24T07:23:54.195Z,4.28
2022-11-24T07:26:21.218Z,4.32
2022-11-24T07:28:47.852Z,3.92
2022-11-24T07:31:17.234Z,3.85
2022-11-24T07:33:43.738Z,4.50
2022-11-24T07:36:10.118Z,4.22
2022-11-24T07:38:36.791Z,3.95
2022-11-24T07:41:05.999Z,4.25
2022-11-24T07:43:33.456Z,4.53
2022-11-24T07:46:00.218Z,4.57
2022-11-24T07:48:26.979Z,4.28
2022-11-24T07:50:56.036Z,4.38
2022-11-24T07:53:22.867Z,4.50
2022-11-24T07:55:56.780Z,3.60
2022-11-24T07:58:24.769Z,4.28
2022-11-24T08:00:54.050Z,4.25
2022-11-24T08:03:20.635Z,4.82
2022-11-24T08:08:43.743Z,4.20
2022-11-24T08:11:15.629Z,4.25
2022-11-24T08:13:42.514Z,4.20
2022-11-24T08:16:13.836Z,4.30
2022-11-24T08:18:41.185Z,4.88
2022-11-24T08:21:12.323Z,4.10
2022-11-24T08:23:38.907Z,3.88
2022-11-24T08:26:10.925Z,3.78
2022-11-24T08:28:38.108Z,3.75
2022-11-24T08:31:06.687Z,3.40
2022-11-24T08:33:33.125Z,3.83
2022-11-24T08:36:04.522Z,3.78
2022-11-24T08:38:30.963Z,3.60
2022-11-24T08:41:09.710Z,3.65
2022-11-24T08:43:36.679Z,3.75
2022-11-24T08:46:06.173Z,3.60
2022-11-24T08:48:33.296Z,3.40
2022-11-24T08:50:59.848Z,4.13
2022-11-24T08:53:26.341Z,6.60
2022-11-24T08:55:52.805Z,6.05
2022-11-24T08:58:21.955Z,11.45
2022-11-24T09:00:49.887Z,10.05
2022-11-24T09:03:16.389Z,6.18
2022-11-24T09:05:51.713Z,5.18
2022-11-24T09:08:18.919Z,4.97
2022-11-24T09:10:45.647Z,4.32
2022-11-24T09:13:12.181Z,4.05
2022-11-24T09:15:38.596Z,4.57
2022-11-24T09:18:05.442Z,5.03
2022-11-24T09:20:31.904Z,3.25
2022-11-24T09:22:58.340Z,2.83
2022-11-24T09:25:24.764Z,3.40
2022-11-24T09:27:51.232Z,3.25
2022-11-24T09:30:17.934Z,3.75
2022-11-24T09:32:44.341Z,3.25
2022-11-24T09:35:10.760Z,4.28
2022-11-24T09:37:37.271Z,3.67
2022-11-24T09:40:04.028Z,3.80
2022-11-24T09:42:41.247Z,3.22
2022-11-24T09:45:13.820Z,3.90
2022-11-24T09:47:52.266Z,3.42
2022-11-24T09:50:24.872Z,3.92
2022-11-24T09:53:03.677Z,3.63
2022-11-24T09:55:38.409Z,3.78
2022-11-24T09:58:35.700Z,3.90
2022-11-24T10:01:05.781Z,4.10
2022-11-24T10:03:34.677Z,3.22
2022-11-24T10:06:04.370Z,4.05
2022-11-24T10:08:43.172Z,3.92
2022-11-24T10:11:15.714Z,3.75
2022-11-24T10:14:02.909Z,3.47
2022-11-24T10:16:35.377Z,3.15
2022-11-24T10:19:14.312Z,4.50
2022-11-24T10:22:06.963Z,3.28
2022-11-24T10:25:01.324Z,3.78
2022-11-24T10:27:37.980Z,3.65
2022-11-24T10:30:12.935Z,3.65
2022-11-24T10:32:43.065Z,3.63
2022-11-24T10:35:21.618Z,3.80
2022-11-24T10:38:26.631Z,3.22
2022-11-24T10:41:03.276Z,3.53
2022-11-24T10:43:29.823Z,3.42
2022-11-24T10:46:16.777Z,3.33
2022-11-24T10:48:51.060Z,3.55
2022-11-24T10:51:36.896Z,4.20
2022-11-24T10:54:26.900Z,3.38
2022-11-24T10:56:54.299Z,3.05
2022-11-24T10:59:35.928Z,3.58
2022-11-24T11:02:04.017Z,3.67
2022-11-24T11:04:31.669Z,3.78
2022-11-24T11:07:13.778Z,3.25
2022-11-24T11:09:40.256Z,3.63
2022-11-24T11:12:42.040Z,3.83
2022-11-24T11:15:21.207Z,3.58
2022-11-24T11:17:50.391Z,3.63
2022-11-24T11:20:19.631Z,3.90
2022-11-24T11:22:48.110Z,3.50
2022-11-24T11:25:17.929Z,4.78
2022-11-24T11:27:44.324Z,3.67
2022-11-24T11:35:51.173Z,10.57
2022-11-24T11:38:17.788Z,11.55
2022-11-24T11:40:44.340Z,4.93
2022-11-24T11:43:28.948Z,3.78
2022-11-24T11:46:02.204Z,5.63
2022-11-24T11:48:40.820Z,8.57
2022-11-24T11:51:28.086Z,6.78
2022-11-24T11:54:27.008Z,6.97
2022-11-24T11:57:30.691Z,6.40
2022-11-24T12:00:12.688Z,8.93
2022-11-24T12:02:46.105Z,10.07
2022-11-24T12:05:30.480Z,8.05
2022-11-24T12:08:23.507Z,5.45
2022-11-24T12:11:09.626Z,4.70
2022-11-24T12:13:48.151Z,9.23
2022-11-24T12:16:45.591Z,10.20
2022-11-24T12:19:24.056Z,5.85
2022-11-24T12:21:53.468Z,3.83
2022-11-24T12:24:50.560Z,3.10
2022-11-24T12:27:32.184Z,5.28
2022-11-24T12:30:04.484Z,4.72
2022-11-24T12:33:12.235Z,3.42
2022-11-24T12:35:45.683Z,4.15
2022-11-24T12:38:41.010Z,7.10
2022-11-24T12:41:41.794Z,4.18
2022-11-24T12:44:31.000Z,3.75
2022-11-24T12:47:10.028Z,3.53
2022-11-24T12:49:47.250Z,4.07
2022-11-24T12:52:24.372Z,4.63
2022-11-24T12:54:50.836Z,3.20
2022-11-24T12:57:30.847Z,10.23
2022-11-24T13:00:08.439Z,7.55
2022-11-24T13:02:47.057Z,5.60
2022-11-24T13:05:28.026Z,4.05
2022-11-24T13:08:03.553Z,3.53
2022-11-24T13:13:28.987Z,6.78
2022-11-24T13:18:57.287Z,3.55
2022-11-24T13:21:42.879Z,3.15
2022-11-24T13:24:19.267Z,4.30
2022-11-24T13:26:49.006Z,6.88
2022-11-24T13:29:27.827Z,4.53
2022-11-24T13:31:55.489Z,3.63
2022-11-24T13:34:40.276Z,3.75
2022-11-24T13:37:26.833Z,5.60
2022-11-24T13:40:23.225Z,4.15
2022-11-24T13:43:12.842Z,3.60
2022-11-24T13:45:39.247Z,3.20
2022-11-24T13:48:21.650Z,3.42
2022-11-24T13:50:50.607Z,3.92
2022-11-24T13:53:35.575Z,3.42
2022-11-24T13:56:14.922Z,5.93
2022-11-24T13:58:44.196Z,6.60
2022-11-24T14:01:13.579Z,5.60
2022-11-24T14:06:51.303Z,14.65
2022-11-24T14:09:43.672Z,10.73
2022-11-24T14:12:14.187Z,8.60
2022-11-24T14:14:41.465Z,8.25
2022-11-24T14:17:15.630Z,7.47
2022-11-24T14:19:47.242Z,8.95
2022-11-24T14:22:26.904Z,4.57
2022-11-24T14:24:57.842Z,4.85
2022-11-24T14:27:30.625Z,5.68
2022-11-24T14:30:21.062Z,6.10
2022-11-24T14:32:58.075Z,4.60
2022-11-24T14:35:29.187Z,4.80
2022-11-24T14:37:55.943Z,4.95
2022-11-24T14:40:38.722Z,9.82
2022-11-24T14:43:29.978Z,4.00
2022-11-24T14:46:00.377Z,3.90
2022-11-24T14:48:50.646Z,4.05
2022-11-24T14:51:24.127Z,8.00
2022-11-24T14:53:56.786Z,4.65
2022-11-24T14:56:26.233Z,4.15
2022-11-24T14:58:54.134Z,3.83
2022-11-24T15:01:22.346Z,4.15
2022-11-24T15:04:13.056Z,4.05
2022-11-24T15:06:49.732Z,3.95
2022-11-24T15:09:30.556Z,4.63
2022-11-24T15:11:57.398Z,4.13
2022-11-24T15:14:36.246Z,4.38
2022-11-24T15:17:02.957Z,5.05
2022-11-24T15:19:32.903Z,4.45
2022-11-24T15:21:59.523Z,5.55
2022-11-24T15:24:26.018Z,4.80
2022-11-24T15:27:00.114Z,5.07
2022-11-24T15:29:26.723Z,6.03
2022-11-24T15:31:53.303Z,5.55
2022-11-24T15:34:19.842Z,5.22
2022-11-24T15:36:46.259Z,4.43
2022-11-24T15:39:12.797Z,4.25
2022-11-24T15:41:40.520Z,4.50
2022-11-24T15:44:07.800Z,4.72
2022-11-24T15:46:38.057Z,5.18
2022-11-24T15:49:05.141Z,6.38
2022-11-24T15:51:31.594Z,6.40
2022-11-24T15:54:01.165Z,6.18
2022-11-24T15:56:33.272Z,6.25
2022-11-24T15:59:01.031Z,6.88
2022-11-24T16:01:32.932Z,9.60
2022-11-24T16:04:08.606Z,7.97
2022-11-24T16:06:35.030Z,7.28
2022-11-24T16:09:01.643Z,6.95
2022-11-24T16:11:28.068Z,6.10
2022-11-24T16:13:57.291Z,6.45
2022-11-24T16:16:25.154Z,6.75
2022-11-24T16:18:51.691Z,6.90
2022-11-24T16:21:18.149Z,6.93
2022-11-24T16:23:45.553Z,7.03
2022-11-24T16:26:12.140Z,7.40
2022-11-24T16:28:38.708Z,6.82
2022-11-24T16:31:05.215Z,5.80
2022-11-24T16:33:31.726Z,5.80
2022-11-24T16:35:58.574Z,6.18
2022-11-24T16:38:24.983Z,6.65
2022-11-24T16:40:56.190Z,6.20
2022-11-24T16:43:22.647Z,6.40
2022-11-24T16:46:15.569Z,8.07
2022-11-24T16:48:42.043Z,6.82
2022-11-24T16:51:11.929Z,6.68
2022-11-24T16:53:39.218Z,6.68
2022-11-24T16:56:06.394Z,6.10
2022-11-24T16:58:32.807Z,6.90
2022-11-24T17:01:04.300Z,6.30
2022-11-24T17:03:33.404Z,7.03
2022-11-24T17:06:00.783Z,7.07
2022-11-24T17:08:30.641Z,6.78
2022-11-24T17:10:57.046Z,6.78
2022-11-24T17:13:24.162Z,7.72
2022-11-24T17:15:54.169Z,7.68
2022-11-24T17:18:25.406Z,6.97
2022-11-24T17:20:52.273Z,7.03
2022-11-24T17:23:19.628Z,7.05
2022-11-24T17:25:46.197Z,7.13
2022-11-24T17:28:12.679Z,7.40
2022-11-24T17:30:39.081Z,7.63
2022-11-24T17:33:05.754Z,8.60
2022-11-24T17:35:34.111Z,8.23
2022-11-24T17:38:01.187Z,9.23
2022-11-24T17:40:29.276Z,8.90
2022-11-24T17:43:00.235Z,9.00
2022-11-24T17:45:27.947Z,8.20
2022-11-24T17:47:54.959Z,7.68
2022-11-24T17:50:25.668Z,6.80
2022-11-24T17:52:53.170Z,6.93
2022-11-24T17:55:19.576Z,6.13
2022-11-24T17:57:46.119Z,5.78
2022-11-24T18:00:13.209Z,5.50
2022-11-24T18:02:39.681Z,5.05
2022-11-24T18:05:06.375Z,4.65
2022-11-24T18:07:35.293Z,4.70
2022-11-24T18:10:01.717Z,4.40
2022-11-24T18:12:28.108Z,4.45
2022-11-24T18:14:54.509Z,4.45
2022-11-24T18:17:20.891Z,5.03
2022-11-24T18:19:47.339Z,5.25
2022-11-24T18:22:13.711Z,4.57
2022-11-24T18:24:40.472Z,5.15
2022-11-24T18:27:07.015Z,5.63
2022-11-24T18:29:33.423Z,5.97
2022-11-24T18:32:00.248Z,5.35
2022-11-24T18:34:27.059Z,5.75
2022-11-24T18:36:53.473Z,6.45
2022-11-24T18:39:22.013Z,9.52
2022-11-24T18:41:48.448Z,14.68
2022-11-24T18:44:14.899Z,17.88
2022-11-24T18:46:41.372Z,17.17
2022-11-24T18:49:07.894Z,14.95
2022-11-24T18:51:34.356Z,13.40
2022-11-24T18:54:02.850Z,10.40
2022-11-24T18:56:29.440Z,8.77
2022-11-24T18:58:56.357Z,7.55
2022-11-24T19:01:27.809Z,7.03
2022-11-24T19:03:56.222Z,7.88
2022-11-24T19:06:24.354Z,6.55
2022-11-24T19:08:53.328Z,7.20
2022-11-24T19:11:21.554Z,6.88
2022-11-24T19:13:48.987Z,6.50
2022-11-24T19:16:16.995Z,6.93
2022-11-24T19:18:46.474Z,7.32
2022-11-24T19:21:17.692Z,6.03
2022-11-24T19:23:44.125Z,5.93
2022-11-24T19:26:10.634Z,5.75
2022-11-24T19:28:37.066Z,5.82
2022-11-24T19:31:06.021Z,5.20
2022-11-24T19:33:33.026Z,5.20
2022-11-24T19:36:04.784Z,5.40
2022-11-24T19:38:33.071Z,4.47
2022-11-24T19:41:04.015Z,5.40
2022-11-24T19:43:30.840Z,5.05
2022-11-24T19:46:05.647Z,5.05
2022-11-24T19:48:33.136Z,4.65
2022-11-24T19:51:04.851Z,4.90
2022-11-24T19:53:31.984Z,5.00
2022-11-24T19:56:05.177Z,4.88
2022-11-24T19:58:31.963Z,5.47
2022-11-24T20:01:24.656Z,5.32
2022-11-24T20:03:59.032Z,5.55
2022-11-24T20:06:26.980Z,6.00
2022-11-24T20:08:53.411Z,6.63
2022-11-24T20:11:20.941Z,6.22
2022-11-24T20:13:48.369Z,6.57
2022-11-24T20:16:20.873Z,7.10
2022-11-24T20:18:47.791Z,6.63
2022-11-24T20:21:21.905Z,9.35
2022-11-24T20:23:56.890Z,9.25
2022-11-24T20:26:24.708Z,10.65
2022-11-24T20:28:53.074Z,10.40
2022-11-24T20:31:22.324Z,9.93
2022-11-24T20:33:49.032Z,10.68
2022-11-24T20:36:18.276Z,10.50
2022-11-24T20:38:45.622Z,10.85
2022-11-24T20:41:23.681Z,11.07
2022-11-24T20:43:51.229Z,9.93
2022-11-24T20:46:20.146Z,10.98
2022-11-24T20:48:46.560Z,10.30
2022-11-24T20:51:15.796Z,8.75
2022-11-24T20:53:42.271Z,8.23
2022-11-24T20:56:11.704Z,9.45
2022-11-24T20:58:38.617Z,8.38
2022-11-24T21:01:13.946Z,9.18
2022-11-24T21:03:43.344Z,7.70
2022-11-24T21:06:10.868Z,9.45
2022-11-24T21:08:39.116Z,7.70
2022-11-24T21:11:07.057Z,11.35
2022-11-24T21:13:34.602Z,9.38
2022-11-24T21:16:10.514Z,8.40
2022-11-24T21:18:36.943Z,8.32
2022-11-24T21:21:03.418Z,6.70
2022-11-24T21:23:29.844Z,6.32
2022-11-24T21:26:05.121Z,6.25
2022-11-24T21:28:32.855Z,5.65
2022-11-24T21:31:04.765Z,6.28
2022-11-24T21:33:31.267Z,5.00
2022-11-24T21:36:05.439Z,4.57
2022-11-24T21:38:32.234Z,4.38
2022-11-24T21:41:08.833Z,4.35
2022-11-24T21:43:35.830Z,5.72
2022-11-24T21:46:02.933Z,11.43
2022-11-24T21:48:30.730Z,12.60
2022-11-24T21:51:02.684Z,12.35
2022-11-24T21:53:34.679Z,12.90
2022-11-24T21:56:03.422Z,13.93
2022-11-24T21:58:29.846Z,13.43
2022-11-24T22:01:02.906Z,13.40
2022-11-24T22:03:29.469Z,15.60
2022-11-24T22:05:57.190Z,15.68
2022-11-24T22:08:24.536Z,14.85
2022-11-24T22:10:51.206Z,17.80
2022-11-24T22:13:17.629Z,16.98
2022-11-24T22:15:44.068Z,16.83
2022-11-24T22:18:10.620Z,15.63
2022-11-24T22:20:37.085Z,16.23
2022-11-24T22:23:03.606Z,15.27
2022-11-24T22:25:30.033Z,14.23
2022-11-24T22:27:57.915Z,12.65
2022-11-24T22:30:24.352Z,12.10
2022-11-24T22:32:54.083Z,10.65
2022-11-24T22:35:20.857Z,9.55
2022-11-24T22:37:47.273Z,9.77
2022-11-24T22:40:13.682Z,7.65
2022-11-24T22:42:40.087Z,6.38
2022-11-24T22:45:07.282Z,5.60
2022-11-24T22:47:36.535Z,5.30
2022-11-24T22:50:03.100Z,4.50
2022-11-24T22:52:29.523Z,4.32
2022-11-24T22:54:55.958Z,3.70
2022-11-24T22:57:22.328Z,3.78
2022-11-24T22:59:48.791Z,3.97
2022-11-24T23:02:15.174Z,3.15
2022-11-24T23:04:41.607Z,4.50
2022-11-24T23:07:08.182Z,5.20
2022-11-24T23:09:34.612Z,7.28
2022-11-24T23:12:01.051Z,8.15
2022-11-24T23:14:28.772Z,18.33
2022-11-24T23:16:55.261Z,21.00
2022-11-24T23:19:21.638Z,17.85
2022-11-24T23:21:48.244Z,17.70
2022-11-24T23:24:14.636Z,17.95
2022-11-24T23:26:41.531Z,18.13
2022-11-24T23:29:08.432Z,16.30
2022-11-24T23:31:37.703Z,16.15
2022-11-24T23:34:04.449Z,15.23
2022-11-24T23:36:31.362Z,12.43
2022-11-24T23:39:03.067Z,9.13
2022-11-24T23:41:30.118Z,6.95
2022-11-24T23:43:56.510Z,5.22
2022-11-24T23:46:27.217Z,4.47
2022-11-24T23:48:54.518Z,4.20
2022-11-24T23:51:26.737Z,4.20
2022-11-24T23:53:54.036Z,4.50
2022-11-24T23:56:22.558Z,6.18
2022-11-24T23:58:49.300Z,12.57
